createdAt,value
2023-02-27T00:01:27.004Z,100.00
2023-02-27T00:03:57.339Z,100.00
2023-02-27T00:06:27.615Z,100.00
2023-02-27T00:08:57.806Z,100.00
2023-02-27T00:11:30.800Z,100.00
2023-02-27T00:14:01.316Z,100.00
2023-02-27T00:16:31.228Z,100.00
2023-02-27T00:19:04.541Z,100.00
2023-02-27T00:21:36.853Z,100.00
2023-02-27T00:24:08.107Z,100.00
2023-02-27T00:26:40.856Z,100.00
2023-02-27T00:29:10.927Z,100.00
2023-02-27T00:31:41.056Z,100.00
2023-02-27T00:34:11.170Z,100.00
2023-02-27T00:36:41.118Z,100.00
2023-02-27T00:39:11.125Z,100.00
2023-02-27T00:41:43.692Z,100.00
2023-02-27T00:44:13.672Z,100.00
2023-02-27T00:46:43.681Z,100.00
2023-02-27T00:49:13.628Z,100.00
2023-02-27T00:51:43.586Z,100.00
2023-02-27T00:54:13.523Z,100.00
2023-02-27T00:56:46.177Z,100.00
2023-02-27T00:59:16.200Z,100.00
2023-02-27T01:01:47.142Z,100.00
2023-02-27T01:04:17.378Z,100.00
2023-02-27T01:06:47.301Z,100.00
2023-02-27T01:09:17.323Z,100.00
2023-02-27T01:11:49.944Z,100.00
2023-02-27T01:14:19.944Z,100.00
2023-02-27T01:16:50.072Z,100.00
2023-02-27T01:19:20.025Z,100.00
2023-02-27T01:21:50.556Z,100.00
2023-02-27T01:24:21.947Z,100.00
2023-02-27T01:26:54.728Z,100.00
2023-02-27T01:29:24.828Z,100.00
2023-02-27T01:31:55.203Z,100.00
2023-02-27T01:34:25.205Z,100.00
2023-02-27T01:36:55.142Z,100.00
2023-02-27T01:39:26.083Z,100.00
2023-02-27T01:41:58.749Z,100.00
2023-02-27T01:44:34.113Z,100.00
2023-02-27T01:47:05.558Z,100.00
2023-02-27T01:49:37.501Z,100.00
2023-02-27T01:52:15.331Z,100.00
2023-02-27T01:54:46.133Z,100.00
2023-02-27T01:57:19.070Z,100.00
2023-02-27T01:59:49.070Z,100.00
2023-02-27T02:02:29.640Z,100.00
2023-02-27T02:05:00.241Z,100.00
2023-02-27T02:07:31.780Z,100.00
2023-02-27T02:10:04.372Z,100.00
2023-02-27T02:12:40.861Z,100.00
2023-02-27T02:15:13.534Z,100.00
2023-02-27T02:17:56.616Z,100.00
2023-02-27T02:21:25.422Z,100.00
2023-02-27T02:24:55.018Z,100.00
2023-02-27T02:27:47.311Z,100.00
2023-02-27T02:30:59.619Z,100.00
2023-02-27T02:34:13.369Z,100.00
2023-02-27T02:37:40.719Z,100.00
2023-02-27T02:40:37.912Z,100.00
2023-02-27T02:43:17.951Z,100.00
2023-02-27T02:46:01.888Z,100.00
2023-02-27T02:48:41.903Z,100.00
2023-02-27T02:51:26.602Z,100.00
2023-02-27T02:54:11.975Z,100.00
2023-02-27T02:56:55.015Z,100.00
2023-02-27T02:59:35.039Z,100.00
2023-02-27T03:02:11.100Z,100.00
2023-02-27T03:04:48.392Z,100.00
2023-02-27T03:07:26.669Z,100.00
2023-02-27T03:10:05.428Z,100.00
2023-02-27T03:12:43.538Z,100.00
2023-02-27T03:15:21.872Z,100.00
2023-02-27T03:17:59.473Z,100.00
2023-02-27T03:20:36.608Z,100.00
2023-02-27T03:23:13.973Z,100.00
2023-02-27T03:25:47.717Z,100.00
2023-02-27T03:28:30.450Z,100.00
2023-02-27T03:31:10.816Z,100.00
2023-02-27T03:33:50.024Z,100.00
2023-02-27T03:36:31.796Z,100.00
2023-02-27T03:39:11.345Z,100.00
2023-02-27T03:41:53.245Z,100.00
2023-02-27T03:44:55.257Z,100.00
2023-02-27T03:47:25.663Z,100.00
2023-02-27T03:49:55.967Z,100.00
2023-02-27T03:52:28.764Z,100.00
2023-02-27T03:55:07.979Z,100.00
2023-02-27T03:57:39.711Z,100.00
2023-02-27T04:00:18.920Z,100.00
2023-02-27T04:02:53.278Z,100.00
2023-02-27T04:05:27.557Z,100.00
2023-02-27T04:08:35.199Z,100.00
2023-02-27T04:11:44.015Z,100.00
2023-02-27T04:14:43.100Z,100.00
2023-02-27T04:17:26.635Z,100.00
2023-02-27T04:20:23.806Z,100.00
2023-02-27T04:23:00.742Z,100.00
2023-02-27T04:25:54.120Z,100.00
2023-02-27T04:28:35.727Z,100.00
2023-02-27T04:31:18.385Z,100.00
2023-02-27T04:34:00.106Z,100.00
2023-02-27T04:36:40.368Z,100.00
2023-02-27T04:39:18.060Z,100.00
2023-02-27T04:41:55.076Z,100.00
2023-02-27T04:44:29.131Z,100.00
2023-02-27T04:47:03.817Z,100.00
2023-02-27T04:49:43.306Z,100.00
2023-02-27T04:52:17.329Z,100.00
2023-02-27T04:54:55.782Z,100.00
2023-02-27T04:57:33.082Z,100.00
2023-02-27T05:00:09.476Z,100.00
2023-02-27T05:02:45.002Z,100.00
2023-02-27T05:05:23.806Z,100.00
2023-02-27T05:08:02.080Z,100.00
2023-02-27T05:10:39.366Z,100.00
2023-02-27T05:13:17.722Z,100.00
2023-02-27T05:15:55.619Z,100.00
2023-02-27T05:18:27.263Z,100.00
2023-02-27T05:21:18.217Z,100.00
2023-02-27T05:24:02.514Z,100.00
2023-02-27T05:27:00.146Z,100.00
2023-02-27T05:29:43.945Z,100.00
2023-02-27T05:32:28.763Z,100.00
2023-02-27T05:35:10.975Z,100.00
2023-02-27T05:37:49.137Z,100.00
2023-02-27T05:40:25.956Z,100.00
2023-02-27T05:43:03.536Z,100.00
2023-02-27T05:45:37.707Z,100.00
2023-02-27T05:48:15.819Z,100.00
2023-02-27T05:50:48.955Z,100.00
2023-02-27T05:53:25.096Z,100.00
2023-02-27T05:55:59.179Z,100.00
2023-02-27T05:58:35.359Z,100.00
2023-02-27T06:01:08.934Z,100.00
2023-02-27T06:03:42.369Z,100.00
2023-02-27T06:06:17.957Z,100.00
2023-02-27T06:08:50.714Z,100.00
2023-02-27T06:11:20.676Z,100.00
2023-02-27T06:13:50.684Z,100.00
2023-02-27T06:16:20.741Z,100.00
2023-02-27T06:18:50.688Z,100.00
2023-02-27T06:21:20.624Z,100.00
2023-02-27T06:23:53.197Z,100.00
2023-02-27T06:26:23.182Z,100.00
2023-02-27T06:28:53.232Z,100.00
2023-02-27T06:31:23.190Z,100.00
2023-02-27T06:33:53.196Z,100.00
2023-02-27T06:36:23.160Z,100.00
2023-02-27T06:38:55.751Z,100.00
2023-02-27T06:41:25.756Z,100.00
2023-02-27T06:43:55.840Z,100.00
2023-02-27T06:46:26.093Z,100.00
2023-02-27T06:48:56.293Z,100.00
2023-02-27T06:51:26.258Z,100.00
2023-02-27T06:53:58.984Z,100.00
2023-02-27T06:56:29.247Z,100.00
2023-02-27T06:58:59.600Z,100.00
2023-02-27T07:01:29.790Z,100.00
2023-02-27T07:04:01.132Z,100.00
2023-02-27T07:07:32.680Z,100.00
2023-02-27T07:09:23.967Z,100.00
2023-02-27T07:11:53.959Z,100.00
2023-02-27T07:14:25.754Z,99.69
2023-02-27T07:16:56.611Z,95.80
2023-02-27T07:19:28.272Z,92.43
2023-02-27T07:21:58.258Z,98.72
2023-02-27T07:24:30.867Z,100.00
2023-02-27T07:27:00.924Z,100.00
2023-02-27T07:29:30.901Z,100.00
2023-02-27T07:32:01.611Z,100.00
2023-02-27T07:34:31.657Z,100.00
2023-02-27T07:37:01.640Z,100.00
2023-02-27T07:39:34.354Z,100.00
2023-02-27T07:42:04.464Z,100.00
2023-02-27T07:44:36.537Z,100.00
2023-02-27T07:47:07.436Z,100.00
2023-02-27T07:49:37.402Z,100.00
2023-02-27T07:52:08.389Z,94.59
2023-02-27T07:54:41.320Z,88.28
2023-02-27T07:57:11.469Z,87.93
2023-02-27T07:59:42.219Z,91.09
2023-02-27T08:02:14.472Z,99.54
2023-02-27T08:04:44.542Z,99.44
2023-02-27T08:07:14.582Z,96.02
2023-02-27T08:09:47.153Z,82.77
2023-02-27T08:12:17.329Z,69.57
2023-02-27T08:14:47.265Z,64.31
2023-02-27T08:17:17.549Z,57.63
2023-02-27T08:19:47.497Z,62.70
2023-02-27T08:22:17.595Z,57.51
2023-02-27T08:24:50.511Z,56.81
2023-02-27T08:27:20.623Z,55.81
2023-02-27T08:29:51.332Z,49.32
2023-02-27T08:32:21.686Z,51.44
2023-02-27T08:34:51.784Z,52.44
2023-02-27T08:37:22.120Z,56.86
2023-02-27T08:39:55.027Z,63.39
2023-02-27T08:42:26.872Z,71.17
2023-02-27T08:44:57.266Z,68.61
2023-02-27T08:47:28.020Z,69.04
2023-02-27T08:49:59.096Z,69.66
2023-02-27T08:52:29.629Z,73.42
2023-02-27T08:55:02.528Z,73.39
2023-02-27T08:57:33.188Z,73.51
2023-02-27T09:00:06.113Z,75.51
2023-02-27T09:02:36.624Z,68.69
2023-02-27T09:05:07.481Z,64.11
2023-02-27T09:07:37.819Z,56.87
2023-02-27T09:10:12.360Z,53.73
2023-02-27T09:12:43.225Z,50.44
2023-02-27T09:15:15.358Z,46.47
2023-02-27T09:17:45.953Z,48.77
2023-02-27T09:20:16.648Z,45.06
2023-02-27T09:22:47.064Z,44.43
2023-02-27T09:25:20.364Z,45.51
2023-02-27T09:27:50.644Z,46.01
2023-02-27T09:30:21.753Z,47.24
2023-02-27T09:32:52.468Z,46.18
2023-02-27T09:35:23.349Z,46.05
2023-02-27T09:37:53.695Z,44.43
2023-02-27T09:40:29.610Z,46.29
2023-02-27T09:43:03.747Z,46.12
2023-02-27T09:45:39.503Z,45.13
2023-02-27T09:48:16.678Z,44.27
2023-02-27T09:50:52.591Z,44.56
2023-02-27T09:53:31.241Z,44.55
2023-02-27T09:56:09.739Z,43.97
2023-02-27T09:58:52.850Z,43.69
2023-02-27T10:01:26.490Z,43.59
2023-02-27T10:04:29.543Z,45.30
2023-02-27T10:07:06.312Z,44.25
2023-02-27T10:09:47.058Z,43.48
2023-02-27T10:12:36.334Z,41.68
2023-02-27T10:15:15.389Z,43.23
2023-02-27T10:17:50.185Z,40.13
2023-02-27T10:20:26.797Z,39.15
2023-02-27T10:23:00.785Z,38.00
2023-02-27T10:25:32.520Z,37.88
2023-02-27T10:28:14.731Z,38.47
2023-02-27T10:30:47.110Z,37.12
2023-02-27T10:33:26.263Z,38.64
2023-02-27T10:35:58.297Z,39.62
2023-02-27T10:38:35.446Z,39.55
2023-02-27T10:41:08.586Z,44.41
2023-02-27T10:43:42.402Z,43.08
2023-02-27T10:46:17.608Z,42.54
2023-02-27T10:48:48.026Z,44.21
2023-02-27T10:51:28.133Z,42.45
2023-02-27T10:54:17.754Z,44.13
2023-02-27T10:56:52.259Z,45.81
2023-02-27T10:59:28.753Z,46.24
2023-02-27T11:02:02.315Z,45.11
2023-02-27T11:04:36.288Z,46.08
2023-02-27T11:07:09.292Z,49.02
2023-02-27T11:09:40.637Z,48.56
2023-02-27T11:12:21.663Z,46.94
2023-02-27T11:14:57.021Z,45.90
2023-02-27T11:17:30.270Z,46.38
2023-02-27T11:20:01.629Z,46.13
2023-02-27T11:22:34.510Z,44.90
2023-02-27T11:25:22.125Z,45.59
2023-02-27T11:27:52.896Z,44.99
2023-02-27T11:30:33.156Z,43.68
2023-02-27T11:33:05.027Z,43.33
2023-02-27T11:35:39.153Z,42.82
2023-02-27T11:38:19.873Z,44.18
2023-02-27T11:40:54.859Z,45.68
2023-02-27T11:43:28.733Z,45.22
2023-02-27T11:46:18.107Z,46.39
2023-02-27T11:48:57.890Z,46.29
2023-02-27T11:51:39.228Z,45.67
2023-02-27T11:54:20.860Z,44.35
2023-02-27T11:56:55.141Z,44.40
2023-02-27T11:59:34.988Z,44.29
2023-02-27T12:02:15.210Z,45.05
2023-02-27T12:04:52.548Z,46.10
2023-02-27T12:07:27.493Z,45.99
2023-02-27T12:10:06.697Z,46.00
2023-02-27T12:12:44.210Z,44.18
2023-02-27T12:15:25.883Z,45.54
2023-02-27T12:18:08.412Z,45.78
2023-02-27T12:20:43.258Z,45.12
2023-02-27T12:23:22.288Z,43.51
2023-02-27T12:25:59.296Z,44.59
2023-02-27T12:28:48.794Z,44.76
2023-02-27T12:31:35.197Z,45.02
2023-02-27T12:34:17.379Z,43.85
2023-02-27T12:36:48.832Z,44.22
2023-02-27T12:39:22.631Z,45.32
2023-02-27T12:42:16.012Z,44.40
2023-02-27T12:45:01.509Z,45.12
2023-02-27T12:47:40.224Z,45.49
2023-02-27T12:50:17.047Z,45.45
2023-02-27T12:53:00.911Z,46.44
2023-02-27T12:55:34.411Z,46.07
2023-02-27T12:58:28.927Z,46.00
2023-02-27T13:01:04.095Z,47.55
2023-02-27T13:03:42.617Z,47.19
2023-02-27T13:06:22.582Z,45.85
2023-02-27T13:09:20.340Z,45.27
2023-02-27T13:12:02.761Z,46.44
2023-02-27T13:14:47.630Z,46.81
2023-02-27T13:17:26.951Z,47.26
2023-02-27T13:20:03.385Z,48.07
2023-02-27T13:22:43.354Z,47.19
2023-02-27T13:25:17.694Z,46.10
2023-02-27T13:27:52.020Z,46.97
2023-02-27T13:30:28.145Z,45.90
2023-02-27T13:33:08.809Z,46.21
2023-02-27T13:35:51.311Z,46.74
2023-02-27T13:38:45.143Z,45.98
2023-02-27T13:41:45.587Z,46.27
2023-02-27T13:44:41.831Z,47.45
2023-02-27T13:47:40.470Z,46.44
2023-02-27T13:50:41.116Z,45.88
2023-02-27T13:53:24.738Z,47.29
2023-02-27T13:56:01.661Z,45.12
2023-02-27T13:58:32.199Z,46.79
2023-02-27T14:01:05.637Z,47.23
2023-02-27T14:03:36.181Z,47.02
2023-02-27T14:06:08.823Z,47.69
2023-02-27T14:08:51.060Z,45.80
2023-02-27T14:11:28.517Z,44.54
2023-02-27T14:14:10.878Z,45.55
2023-02-27T14:16:56.919Z,46.23
2023-02-27T14:19:51.545Z,45.81
2023-02-27T14:22:39.139Z,47.44
2023-02-27T14:25:34.578Z,46.54
2023-02-27T14:28:08.112Z,47.64
2023-02-27T14:30:43.435Z,45.48
2023-02-27T14:33:39.158Z,45.30
2023-02-27T14:36:17.426Z,47.96
2023-02-27T14:38:48.325Z,47.68
2023-02-27T14:41:33.612Z,47.67
2023-02-27T14:44:06.827Z,48.20
2023-02-27T14:46:40.464Z,49.34
2023-02-27T14:49:21.557Z,48.64
2023-02-27T14:51:53.694Z,49.05
2023-02-27T14:54:25.893Z,51.52
2023-02-27T14:57:01.151Z,51.89
2023-02-27T14:59:36.933Z,51.13
2023-02-27T15:02:13.056Z,51.13
2023-02-27T15:04:43.521Z,50.77
2023-02-27T15:07:24.765Z,50.57
2023-02-27T15:09:58.833Z,49.54
2023-02-27T15:12:30.823Z,50.23
2023-02-27T15:15:07.791Z,50.65
2023-02-27T15:17:42.157Z,51.42
2023-02-27T15:20:29.895Z,51.03
2023-02-27T15:23:01.605Z,49.92
2023-02-27T15:25:36.645Z,50.45
2023-02-27T15:28:10.045Z,49.51
2023-02-27T15:30:43.091Z,51.25
2023-02-27T15:33:18.616Z,49.99
2023-02-27T15:35:49.784Z,50.77
2023-02-27T15:38:28.931Z,50.87
2023-02-27T15:41:00.415Z,52.11
2023-02-27T15:43:31.921Z,53.05
2023-02-27T15:46:04.931Z,53.42
2023-02-27T15:48:36.088Z,53.68
2023-02-27T15:51:07.832Z,53.71
2023-02-27T15:53:42.559Z,53.39
2023-02-27T15:56:16.323Z,52.95
2023-02-27T15:58:53.462Z,52.29
2023-02-27T16:01:29.656Z,52.33
2023-02-27T16:04:02.323Z,52.35
2023-02-27T16:06:35.500Z,52.49
2023-02-27T16:09:08.366Z,53.22
2023-02-27T16:11:39.978Z,51.91
2023-02-27T16:14:26.565Z,52.70
2023-02-27T16:17:00.137Z,53.84
2023-02-27T16:19:34.208Z,53.73
2023-02-27T16:22:14.274Z,53.41
2023-02-27T16:24:45.301Z,53.53
2023-02-27T16:27:21.466Z,53.00
2023-02-27T16:29:52.450Z,52.72
2023-02-27T16:32:29.402Z,53.65
2023-02-27T16:35:10.430Z,52.41
2023-02-27T16:37:43.368Z,52.08
2023-02-27T16:40:17.784Z,52.33
2023-02-27T16:42:48.993Z,54.45
2023-02-27T16:45:21.721Z,51.95
2023-02-27T16:47:56.969Z,52.14
2023-02-27T16:50:31.981Z,53.44
2023-02-27T16:53:02.348Z,53.01
2023-02-27T16:55:33.935Z,52.69
2023-02-27T16:58:04.688Z,53.39
2023-02-27T17:00:35.321Z,53.68
2023-02-27T17:03:08.499Z,52.76
2023-02-27T17:05:39.140Z,52.94
2023-02-27T17:08:10.037Z,53.38
2023-02-27T17:10:40.377Z,54.29
2023-02-27T17:13:10.759Z,54.09
2023-02-27T17:15:41.424Z,52.52
2023-02-27T17:18:14.902Z,53.27
2023-02-27T17:20:45.309Z,53.40
2023-02-27T17:23:16.161Z,52.79
2023-02-27T17:25:46.653Z,53.24
2023-02-27T17:28:17.233Z,53.36
2023-02-27T17:30:47.881Z,53.16
2023-02-27T17:33:21.872Z,53.35
2023-02-27T17:35:53.074Z,55.15
2023-02-27T17:38:23.832Z,54.72
2023-02-27T17:40:55.000Z,54.95
2023-02-27T17:43:25.358Z,55.07
2023-02-27T17:45:55.746Z,55.00
2023-02-27T17:48:28.776Z,54.97
2023-02-27T17:51:05.895Z,55.04
2023-02-27T17:53:37.136Z,55.53
2023-02-27T17:56:08.525Z,55.67
2023-02-27T17:58:39.658Z,55.93
2023-02-27T18:01:11.560Z,56.17
2023-02-27T18:03:44.912Z,56.65
2023-02-27T18:06:15.667Z,57.60
2023-02-27T18:08:46.192Z,57.25
2023-02-27T18:11:19.032Z,57.54
2023-02-27T18:13:50.530Z,57.12
2023-02-27T18:16:22.070Z,57.08
2023-02-27T18:18:55.155Z,57.85
2023-02-27T18:21:26.635Z,59.95
2023-02-27T18:23:57.238Z,59.88
2023-02-27T18:26:32.708Z,58.72
2023-02-27T18:29:06.642Z,57.84
2023-02-27T18:31:39.229Z,57.44
2023-02-27T18:34:13.006Z,56.54
2023-02-27T18:36:43.789Z,55.59
2023-02-27T18:39:14.171Z,55.50
2023-02-27T18:41:44.614Z,56.18
2023-02-27T18:44:15.343Z,56.94
2023-02-27T18:46:46.227Z,56.70
2023-02-27T18:49:19.601Z,57.18
2023-02-27T18:51:50.072Z,57.10
2023-02-27T18:54:20.506Z,57.29
2023-02-27T18:56:54.227Z,57.36
2023-02-27T18:59:24.614Z,57.11
2023-02-27T19:01:55.025Z,57.18
2023-02-27T19:04:28.224Z,57.40
2023-02-27T19:06:58.688Z,57.74
2023-02-27T19:09:32.813Z,57.34
2023-02-27T19:12:03.452Z,57.38
2023-02-27T19:14:33.826Z,57.88
2023-02-27T19:17:04.399Z,57.81
2023-02-27T19:19:37.471Z,58.15
2023-02-27T19:22:07.847Z,58.55
2023-02-27T19:24:38.348Z,59.53
2023-02-27T19:27:08.670Z,59.48
2023-02-27T19:29:39.047Z,60.16
2023-02-27T19:32:10.228Z,60.78
2023-02-27T19:34:43.306Z,61.36
2023-02-27T19:37:15.699Z,63.69
2023-02-27T19:39:46.518Z,62.43
2023-02-27T19:42:16.557Z,62.38
2023-02-27T19:44:46.616Z,64.77
2023-02-27T19:47:16.621Z,64.32
2023-02-27T19:49:49.618Z,64.47
2023-02-27T19:52:19.623Z,63.56
2023-02-27T19:54:49.786Z,64.33
2023-02-27T19:57:20.571Z,65.48
2023-02-27T19:59:50.675Z,65.10
2023-02-27T20:02:20.605Z,65.50
2023-02-27T20:04:53.724Z,63.93
2023-02-27T20:07:29.086Z,66.15
2023-02-27T20:09:59.265Z,66.89
2023-02-27T20:12:29.349Z,67.04
2023-02-27T20:14:59.314Z,67.10
2023-02-27T20:17:29.583Z,67.79
2023-02-27T20:20:02.065Z,68.25
2023-02-27T20:22:32.748Z,68.89
2023-02-27T20:25:03.097Z,68.11
2023-02-27T20:27:33.058Z,67.27
2023-02-27T20:30:03.110Z,68.37
2023-02-27T20:32:33.183Z,67.06
2023-02-27T20:35:06.615Z,67.03
2023-02-27T20:37:36.689Z,67.70
2023-02-27T20:40:08.413Z,67.03
2023-02-27T20:42:38.894Z,64.73
2023-02-27T20:45:10.898Z,65.07
2023-02-27T20:47:40.898Z,65.00
2023-02-27T20:50:15.179Z,64.21
2023-02-27T20:52:45.185Z,63.77
2023-02-27T20:55:15.206Z,64.19
2023-02-27T20:57:45.158Z,63.64
2023-02-27T21:00:16.945Z,64.67
2023-02-27T21:02:46.976Z,65.05
2023-02-27T21:05:19.731Z,66.45
2023-02-27T21:07:49.807Z,66.03
2023-02-27T21:10:20.697Z,65.60
2023-02-27T21:12:50.671Z,64.39
2023-02-27T21:15:20.902Z,64.73
2023-02-27T21:17:50.922Z,65.69
2023-02-27T21:20:23.627Z,64.80
2023-02-27T21:22:55.870Z,64.63
2023-02-27T21:25:27.455Z,64.04
2023-02-27T21:28:02.099Z,63.99
2023-02-27T21:30:32.630Z,64.17
2023-02-27T21:33:04.475Z,63.84
2023-02-27T21:35:37.209Z,63.51
2023-02-27T21:38:07.450Z,64.98
2023-02-27T21:40:37.848Z,64.50
2023-02-27T21:43:07.786Z,64.78
2023-02-27T21:45:41.559Z,65.54
2023-02-27T21:48:11.887Z,65.51
2023-02-27T21:50:44.415Z,66.69
2023-02-27T21:53:14.373Z,69.06
2023-02-27T21:55:44.330Z,69.95
2023-02-27T21:58:14.347Z,72.12
2023-02-27T22:00:44.393Z,75.42
2023-02-27T22:03:14.331Z,81.88
2023-02-27T22:05:47.442Z,98.16
2023-02-27T22:08:17.475Z,81.79
2023-02-27T22:10:48.540Z,87.80
2023-02-27T22:13:19.023Z,82.80
2023-02-27T22:15:48.994Z,82.26
2023-02-27T22:18:19.254Z,90.20
2023-02-27T22:20:51.825Z,84.79
2023-02-27T22:23:21.766Z,92.23
2023-02-27T22:26:02.479Z,95.02
2023-02-27T22:28:34.501Z,95.31
2023-02-27T22:31:16.908Z,94.98
2023-02-27T22:33:49.681Z,88.52
2023-02-27T22:36:25.329Z,96.28
2023-02-27T22:38:56.259Z,94.15
2023-02-27T22:41:31.091Z,89.82
2023-02-27T22:44:03.334Z,96.68
2023-02-27T22:46:35.628Z,89.55
2023-02-27T22:49:10.933Z,99.87
2023-02-27T22:51:44.373Z,100.00
2023-02-27T22:54:16.777Z,96.45
2023-02-27T22:56:47.284Z,91.24
2023-02-27T22:59:17.416Z,93.37
2023-02-27T23:01:48.703Z,94.98
2023-02-27T23:04:19.767Z,92.03
2023-02-27T23:06:53.473Z,95.60
2023-02-27T23:09:27.318Z,100.00
2023-02-27T23:11:58.892Z,100.00
2023-02-27T23:14:29.105Z,100.00
2023-02-27T23:16:59.222Z,95.58
2023-02-27T23:19:29.209Z,98.66
2023-02-27T23:22:01.887Z,95.98
2023-02-27T23:24:31.830Z,100.00
2023-02-27T23:27:03.041Z,97.56
2023-02-27T23:29:33.916Z,99.15
2023-02-27T23:32:03.991Z,100.00
2023-02-27T23:34:48.674Z,100.00
2023-02-27T23:37:22.143Z,100.00
2023-02-27T23:39:52.369Z,100.00
2023-02-27T23:42:22.331Z,100.00
2023-02-27T23:45:04.917Z,100.00
2023-02-27T23:47:51.807Z,100.00
2023-02-27T23:50:23.821Z,100.00
2023-02-27T23:52:58.928Z,100.00
2023-02-27T23:55:31.723Z,100.00
2023-02-27T23:58:05.014Z,100.00
